sensor_id;sensor_type;location;lat;lon;timestamp;P1;durP1;ratioP1;P2;durP2;ratioP2
1106;SDS011;540;49.448;8.612;2022-11-12T00:01:08;25.08;;;11.18;;
1106;SDS011;540;49.448;8.612;2022-11-12T00:03:35;22.55;;;11.23;;
1106;SDS011;540;49.448;8.612;2022-11-12T00:06:03;23.40;;;10.13;;
1106;SDS011;540;49.448;8.612;2022-11-12T00:08:31;59.50;;;13.10;;
1106;SDS011;540;49.448;8.612;2022-11-12T00:10:59;20.73;;;11.40;;
1106;SDS011;540;49.448;8.612;2022-11-12T00:13:26;25.80;;;11.93;;
1106;SDS011;540;49.448;8.612;2022-11-12T00:15:54;20.00;;;11.05;;
1106;SDS011;540;49.448;8.612;2022-11-12T00:18:23;19.65;;;10.07;;
1106;SDS011;540;49.448;8.612;2022-11-12T00:20:51;22.35;;;10.60;;
1106;SDS011;540;49.448;8.612;2022-11-12T00:23:19;25.63;;;11.75;;
1106;SDS011;540;49.448;8.612;2022-11-12T00:25:47;20.27;;;10.52;;
1106;SDS011;540;49.448;8.612;2022-11-12T00:28:23;22.17;;;10.40;;
1106;SDS011;540;49.448;8.612;2022-11-12T00:30:51;31.70;;;13.02;;
1106;SDS011;540;49.448;8.612;2022-11-12T00:33:19;32.50;;;12.13;;
1106;SDS011;540;49.448;8.612;2022-11-12T00:35:48;25.25;;;11.07;;
1106;SDS011;540;49.448;8.612;2022-11-12T00:38:16;24.02;;;11.05;;
1106;SDS011;540;49.448;8.612;2022-11-12T00:40:43;23.92;;;11.18;;
1106;SDS011;540;49.448;8.612;2022-11-12T00:43:11;20.80;;;10.93;;
1106;SDS011;540;49.448;8.612;2022-11-12T00:45:39;19.42;;;10.13;;
1106;SDS011;540;49.448;8.612;2022-11-12T00:48:09;20.00;;;9.90;;
1106;SDS011;540;49.448;8.612;2022-11-12T00:50:36;21.05;;;8.95;;
1106;SDS011;540;49.448;8.612;2022-11-12T00:53:05;22.02;;;9.25;;
1106;SDS011;540;49.448;8.612;2022-11-12T00:55:33;16.83;;;8.77;;
1106;SDS011;540;49.448;8.612;2022-11-12T00:58:01;22.63;;;9.90;;
1106;SDS011;540;49.448;8.612;2022-11-12T01:00:29;20.70;;;9.77;;
1106;SDS011;540;49.448;8.612;2022-11-12T01:02:56;16.15;;;8.65;;
1106;SDS011;540;49.448;8.612;2022-11-12T01:05:24;17.48;;;8.65;;
1106;SDS011;540;49.448;8.612;2022-11-12T01:07:52;20.67;;;8.80;;
1106;SDS011;540;49.448;8.612;2022-11-12T01:10:22;26.48;;;9.57;;
1106;SDS011;540;49.448;8.612;2022-11-12T01:12:50;16.92;;;8.95;;
1106;SDS011;540;49.448;8.612;2022-11-12T01:15:18;17.58;;;9.15;;
1106;SDS011;540;49.448;8.612;2022-11-12T01:17:45;15.23;;;8.60;;
1106;SDS011;540;49.448;8.612;2022-11-12T01:20:13;17.52;;;9.38;;
1106;SDS011;540;49.448;8.612;2022-11-12T01:22:41;16.02;;;7.68;;
1106;SDS011;540;49.448;8.612;2022-11-12T01:25:09;17.10;;;8.93;;
1106;SDS011;540;49.448;8.612;2022-11-12T01:27:38;17.92;;;8.27;;
1106;SDS011;540;49.448;8.612;2022-11-12T01:30:06;34.72;;;9.65;;
1106;SDS011;540;49.448;8.612;2022-11-12T01:32:35;13.52;;;8.13;;
1106;SDS011;540;49.448;8.612;2022-11-12T01:35:03;15.43;;;8.82;;
1106;SDS011;540;49.448;8.612;2022-11-12T01:37:32;18.48;;;8.85;;
1106;SDS011;540;49.448;8.612;2022-11-12T01:39:59;14.35;;;8.23;;
1106;SDS011;540;49.448;8.612;2022-11-12T01:42:28;21.58;;;9.25;;
1106;SDS011;540;49.448;8.612;2022-11-12T01:44:59;20.27;;;9.57;;
1106;SDS011;540;49.448;8.612;2022-11-12T01:47:27;17.92;;;9.93;;
1106;SDS011;540;49.448;8.612;2022-11-12T01:49:57;22.80;;;9.60;;
1106;SDS011;540;49.448;8.612;2022-11-12T01:52:41;23.08;;;9.23;;
1106;SDS011;540;49.448;8.612;2022-11-12T01:55:13;21.83;;;9.60;;
1106;SDS011;540;49.448;8.612;2022-11-12T01:57:46;20.05;;;9.25;;
1106;SDS011;540;49.448;8.612;2022-11-12T02:00:19;24.17;;;9.60;;
1106;SDS011;540;49.448;8.612;2022-11-12T02:02:48;22.15;;;10.05;;
1106;SDS011;540;49.448;8.612;2022-11-12T02:05:20;28.65;;;10.75;;
1106;SDS011;540;49.448;8.612;2022-11-12T02:07:49;22.67;;;10.43;;
1106;SDS011;540;49.448;8.612;2022-11-12T02:10:18;24.25;;;10.85;;
1106;SDS011;540;49.448;8.612;2022-11-12T02:12:46;25.17;;;11.43;;
1106;SDS011;540;49.448;8.612;2022-11-12T02:15:37;28.83;;;10.82;;
1106;SDS011;540;49.448;8.612;2022-11-12T02:18:06;26.63;;;11.05;;
1106;SDS011;540;49.448;8.612;2022-11-12T02:20:34;30.73;;;9.98;;
1106;SDS011;540;49.448;8.612;2022-11-12T02:23:05;22.42;;;9.52;;
1106;SDS011;540;49.448;8.612;2022-11-12T02:25:34;19.80;;;9.43;;
1106;SDS011;540;49.448;8.612;2022-11-12T02:28:03;19.88;;;9.63;;
1106;SDS011;540;49.448;8.612;2022-11-12T02:30:34;17.92;;;8.57;;
1106;SDS011;540;49.448;8.612;2022-11-12T02:33:03;21.15;;;8.70;;
1106;SDS011;540;49.448;8.612;2022-11-12T02:35:31;18.63;;;8.93;;
1106;SDS011;540;49.448;8.612;2022-11-12T02:37:59;18.25;;;7.78;;
1106;SDS011;540;49.448;8.612;2022-11-12T02:40:28;21.80;;;8.07;;
1106;SDS011;540;49.448;8.612;2022-11-12T02:42:56;19.27;;;8.38;;
1106;SDS011;540;49.448;8.612;2022-11-12T02:45:24;23.55;;;8.98;;
1106;SDS011;540;49.448;8.612;2022-11-12T02:47:52;24.08;;;10.05;;
1106;SDS011;540;49.448;8.612;2022-11-12T02:50:20;20.55;;;10.10;;
1106;SDS011;540;49.448;8.612;2022-11-12T02:52:48;19.77;;;8.70;;
1106;SDS011;540;49.448;8.612;2022-11-12T02:55:15;21.10;;;9.77;;
1106;SDS011;540;49.448;8.612;2022-11-12T02:57:45;20.33;;;9.77;;
1106;SDS011;540;49.448;8.612;2022-11-12T03:00:12;22.45;;;9.75;;
1106;SDS011;540;49.448;8.612;2022-11-12T03:02:40;23.80;;;9.60;;
1106;SDS011;540;49.448;8.612;2022-11-12T03:05:08;20.70;;;10.10;;
1106;SDS011;540;49.448;8.612;2022-11-12T03:07:37;19.73;;;8.98;;
1106;SDS011;540;49.448;8.612;2022-11-12T03:10:06;25.95;;;9.50;;
1106;SDS011;540;49.448;8.612;2022-11-12T03:12:34;26.70;;;10.15;;
1106;SDS011;540;49.448;8.612;2022-11-12T03:15:04;21.42;;;9.68;;
1106;SDS011;540;49.448;8.612;2022-11-12T03:17:32;24.23;;;10.90;;
1106;SDS011;540;49.448;8.612;2022-11-12T03:20:01;32.05;;;10.30;;
1106;SDS011;540;49.448;8.612;2022-11-12T03:22:28;24.08;;;9.77;;
1106;SDS011;540;49.448;8.612;2022-11-12T03:24:56;24.98;;;10.77;;
1106;SDS011;540;49.448;8.612;2022-11-12T03:27:24;27.95;;;10.77;;
1106;SDS011;540;49.448;8.612;2022-11-12T03:29:52;29.33;;;10.48;;
1106;SDS011;540;49.448;8.612;2022-11-12T03:32:21;28.15;;;10.50;;
1106;SDS011;540;49.448;8.612;2022-11-12T03:34:49;24.63;;;9.27;;
1106;SDS011;540;49.448;8.612;2022-11-12T03:37:20;23.08;;;9.93;;
1106;SDS011;540;49.448;8.612;2022-11-12T03:39:48;20.40;;;8.95;;
1106;SDS011;540;49.448;8.612;2022-11-12T03:42:16;23.25;;;9.52;;
1106;SDS011;540;49.448;8.612;2022-11-12T03:44:43;21.08;;;8.77;;
1106;SDS011;540;49.448;8.612;2022-11-12T03:47:11;20.13;;;8.77;;
1106;SDS011;540;49.448;8.612;2022-11-12T03:49:40;19.92;;;8.88;;
1106;SDS011;540;49.448;8.612;2022-11-12T03:52:08;19.75;;;8.77;;
1106;SDS011;540;49.448;8.612;2022-11-12T03:54:36;20.48;;;9.07;;
1106;SDS011;540;49.448;8.612;2022-11-12T03:57:03;19.90;;;8.38;;
1106;SDS011;540;49.448;8.612;2022-11-12T03:59:31;20.20;;;8.48;;
1106;SDS011;540;49.448;8.612;2022-11-12T04:01:59;16.13;;;7.07;;
1106;SDS011;540;49.448;8.612;2022-11-12T04:04:27;17.48;;;8.25;;
1106;SDS011;540;49.448;8.612;2022-11-12T04:07:16;16.85;;;7.13;;
1106;SDS011;540;49.448;8.612;2022-11-12T04:10:01;15.88;;;7.85;;
1106;SDS011;540;49.448;8.612;2022-11-12T04:12:29;12.10;;;6.38;;
1106;SDS011;540;49.448;8.612;2022-11-12T04:15:14;18.20;;;7.28;;
1106;SDS011;540;49.448;8.612;2022-11-12T04:17:42;13.05;;;6.45;;
1106;SDS011;540;49.448;8.612;2022-11-12T04:20:30;12.05;;;6.45;;
1106;SDS011;540;49.448;8.612;2022-11-12T04:23:28;12.80;;;6.00;;
1106;SDS011;540;49.448;8.612;2022-11-12T04:25:56;11.27;;;6.03;;
1106;SDS011;540;49.448;8.612;2022-11-12T04:28:41;11.40;;;6.63;;
1106;SDS011;540;49.448;8.612;2022-11-12T04:31:30;11.50;;;6.68;;
1106;SDS011;540;49.448;8.612;2022-11-12T04:33:56;23.23;;;8.20;;
1106;SDS011;540;49.448;8.612;2022-11-12T04:36:44;21.33;;;7.65;;
1106;SDS011;540;49.448;8.612;2022-11-12T04:39:13;18.20;;;7.63;;
1106;SDS011;540;49.448;8.612;2022-11-12T04:41:41;14.20;;;7.72;;
1106;SDS011;540;49.448;8.612;2022-11-12T04:44:26;27.23;;;7.72;;
1106;SDS011;540;49.448;8.612;2022-11-12T04:47:12;12.43;;;6.57;;
1106;SDS011;540;49.448;8.612;2022-11-12T04:49:39;17.20;;;7.32;;
1106;SDS011;540;49.448;8.612;2022-11-12T04:52:07;8.93;;;5.53;;
1106;SDS011;540;49.448;8.612;2022-11-12T04:54:37;23.10;;;7.28;;
1106;SDS011;540;49.448;8.612;2022-11-12T04:57:04;26.98;;;7.22;;
1106;SDS011;540;49.448;8.612;2022-11-12T04:59:32;10.52;;;6.63;;
1106;SDS011;540;49.448;8.612;2022-11-12T05:02:00;11.45;;;6.13;;
1106;SDS011;540;49.448;8.612;2022-11-12T05:04:28;12.52;;;6.75;;
1106;SDS011;540;49.448;8.612;2022-11-12T05:06:55;10.95;;;7.00;;
1106;SDS011;540;49.448;8.612;2022-11-12T05:09:25;11.98;;;6.22;;
1106;SDS011;540;49.448;8.612;2022-11-12T05:11:55;10.07;;;6.35;;
1106;SDS011;540;49.448;8.612;2022-11-12T05:14:23;17.58;;;6.43;;
1106;SDS011;540;49.448;8.612;2022-11-12T05:16:51;11.80;;;6.32;;
1106;SDS011;540;49.448;8.612;2022-11-12T05:19:18;12.73;;;6.18;;
1106;SDS011;540;49.448;8.612;2022-11-12T05:21:46;22.38;;;7.35;;
1106;SDS011;540;49.448;8.612;2022-11-12T05:24:37;13.13;;;6.57;;
1106;SDS011;540;49.448;8.612;2022-11-12T05:27:10;15.68;;;6.90;;
1106;SDS011;540;49.448;8.612;2022-11-12T05:29:39;21.15;;;7.07;;
1106;SDS011;540;49.448;8.612;2022-11-12T05:32:08;15.32;;;7.57;;
1106;SDS011;540;49.448;8.612;2022-11-12T05:34:37;16.58;;;7.90;;
1106;SDS011;540;49.448;8.612;2022-11-12T05:37:06;14.38;;;7.40;;
1106;SDS011;540;49.448;8.612;2022-11-12T05:39:34;12.10;;;6.75;;
1106;SDS011;540;49.448;8.612;2022-11-12T05:42:02;11.45;;;6.32;;
1106;SDS011;540;49.448;8.612;2022-11-12T05:44:40;12.07;;;6.72;;
1106;SDS011;540;49.448;8.612;2022-11-12T05:47:07;15.77;;;7.07;;
1106;SDS011;540;49.448;8.612;2022-11-12T05:49:35;49.60;;;8.95;;
1106;SDS011;540;49.448;8.612;2022-11-12T05:52:03;15.27;;;7.07;;
1106;SDS011;540;49.448;8.612;2022-11-12T05:54:31;14.73;;;6.35;;
1106;SDS011;540;49.448;8.612;2022-11-12T05:56:59;16.05;;;7.57;;
1106;SDS011;540;49.448;8.612;2022-11-12T05:59:26;14.00;;;6.47;;
1106;SDS011;540;49.448;8.612;2022-11-12T06:01:56;10.70;;;6.22;;
1106;SDS011;540;49.448;8.612;2022-11-12T06:04:23;16.15;;;7.13;;
1106;SDS011;540;49.448;8.612;2022-11-12T06:06:51;12.52;;;6.82;;
1106;SDS011;540;49.448;8.612;2022-11-12T06:09:19;10.63;;;5.93;;
1106;SDS011;540;49.448;8.612;2022-11-12T06:11:47;31.40;;;8.32;;
1106;SDS011;540;49.448;8.612;2022-11-12T06:14:15;12.88;;;6.22;;
1106;SDS011;540;49.448;8.612;2022-11-12T06:16:42;20.42;;;8.02;;
1106;SDS011;540;49.448;8.612;2022-11-12T06:19:11;20.60;;;8.52;;
1106;SDS011;540;49.448;8.612;2022-11-12T06:21:39;19.52;;;8.07;;
1106;SDS011;540;49.448;8.612;2022-11-12T06:24:10;27.65;;;10.68;;
1106;SDS011;540;49.448;8.612;2022-11-12T06:26:37;21.60;;;8.00;;
1106;SDS011;540;49.448;8.612;2022-11-12T06:29:05;23.27;;;8.55;;
1106;SDS011;540;49.448;8.612;2022-11-12T06:31:33;15.82;;;7.75;;
1106;SDS011;540;49.448;8.612;2022-11-12T06:34:01;16.60;;;7.75;;
1106;SDS011;540;49.448;8.612;2022-11-12T06:36:30;15.55;;;8.05;;
1106;SDS011;540;49.448;8.612;2022-11-12T06:38:58;19.63;;;7.30;;
1106;SDS011;540;49.448;8.612;2022-11-12T06:41:25;24.13;;;8.82;;
1106;SDS011;540;49.448;8.612;2022-11-12T06:43:53;18.17;;;8.27;;
1106;SDS011;540;49.448;8.612;2022-11-12T06:46:21;15.82;;;7.50;;
1106;SDS011;540;49.448;8.612;2022-11-12T06:48:49;21.02;;;9.18;;
1106;SDS011;540;49.448;8.612;2022-11-12T06:51:17;26.80;;;9.85;;
1106;SDS011;540;49.448;8.612;2022-11-12T06:53:48;21.15;;;8.38;;
1106;SDS011;540;49.448;8.612;2022-11-12T06:56:16;16.83;;;8.05;;
1106;SDS011;540;49.448;8.612;2022-11-12T06:58:44;15.23;;;7.43;;
1106;SDS011;540;49.448;8.612;2022-11-12T07:01:13;13.23;;;6.50;;
1106;SDS011;540;49.448;8.612;2022-11-12T07:03:42;20.83;;;7.47;;
1106;SDS011;540;49.448;8.612;2022-11-12T07:06:12;18.63;;;7.47;;
1106;SDS011;540;49.448;8.612;2022-11-12T07:08:44;18.42;;;7.40;;
1106;SDS011;540;49.448;8.612;2022-11-12T07:11:13;20.55;;;9.32;;
1106;SDS011;540;49.448;8.612;2022-11-12T07:13:41;23.90;;;10.55;;
1106;SDS011;540;49.448;8.612;2022-11-12T07:16:10;23.65;;;10.77;;
1106;SDS011;540;49.448;8.612;2022-11-12T07:18:43;24.88;;;9.55;;
1106;SDS011;540;49.448;8.612;2022-11-12T07:21:12;37.83;;;17.05;;
1106;SDS011;540;49.448;8.612;2022-11-12T07:23:41;38.92;;;20.90;;
1106;SDS011;540;49.448;8.612;2022-11-12T07:26:11;34.65;;;17.02;;
1106;SDS011;540;49.448;8.612;2022-11-12T07:28:41;46.30;;;21.38;;
1106;SDS011;540;49.448;8.612;2022-11-12T07:31:10;45.90;;;27.80;;
1106;SDS011;540;49.448;8.612;2022-11-12T07:33:40;33.25;;;20.50;;
1106;SDS011;540;49.448;8.612;2022-11-12T07:36:09;29.20;;;15.73;;
1106;SDS011;540;49.448;8.612;2022-11-12T07:38:38;32.28;;;18.67;;
1106;SDS011;540;49.448;8.612;2022-11-12T07:41:07;14.65;;;8.57;;
1106;SDS011;540;49.448;8.612;2022-11-12T07:43:38;15.73;;;8.45;;
1106;SDS011;540;49.448;8.612;2022-11-12T07:46:08;15.60;;;9.25;;
1106;SDS011;540;49.448;8.612;2022-11-12T07:48:38;16.92;;;8.10;;
1106;SDS011;540;49.448;8.612;2022-11-12T07:51:07;28.25;;;9.73;;
1106;SDS011;540;49.448;8.612;2022-11-12T07:53:37;19.13;;;9.35;;
1106;SDS011;540;49.448;8.612;2022-11-12T07:56:06;18.60;;;8.15;;
1106;SDS011;540;49.448;8.612;2022-11-12T07:58:36;21.88;;;7.93;;
1106;SDS011;540;49.448;8.612;2022-11-12T08:01:06;13.23;;;7.10;;
1106;SDS011;540;49.448;8.612;2022-11-12T08:03:35;12.27;;;6.55;;
1106;SDS011;540;49.448;8.612;2022-11-12T08:06:03;17.00;;;6.47;;
1106;SDS011;540;49.448;8.612;2022-11-12T08:08:31;15.50;;;7.20;;
1106;SDS011;540;49.448;8.612;2022-11-12T08:10:59;28.20;;;7.13;;
1106;SDS011;540;49.448;8.612;2022-11-12T08:13:27;23.55;;;7.93;;
1106;SDS011;540;49.448;8.612;2022-11-12T08:15:57;15.70;;;8.00;;
1106;SDS011;540;49.448;8.612;2022-11-12T08:18:25;14.57;;;7.07;;
1106;SDS011;540;49.448;8.612;2022-11-12T08:20:57;14.23;;;7.90;;
1106;SDS011;540;49.448;8.612;2022-11-12T08:23:26;16.73;;;6.60;;
1106;SDS011;540;49.448;8.612;2022-11-12T08:25:56;14.25;;;6.85;;
1106;SDS011;540;49.448;8.612;2022-11-12T08:28:24;10.98;;;6.45;;
1106;SDS011;540;49.448;8.612;2022-11-12T08:30:54;16.40;;;7.00;;
1106;SDS011;540;49.448;8.612;2022-11-12T08:33:24;12.82;;;6.50;;
1106;SDS011;540;49.448;8.612;2022-11-12T08:35:52;10.32;;;5.85;;
1106;SDS011;540;49.448;8.612;2022-11-12T08:38:19;11.40;;;6.50;;
1106;SDS011;540;49.448;8.612;2022-11-12T08:40:48;14.10;;;6.35;;
1106;SDS011;540;49.448;8.612;2022-11-12T08:43:16;12.05;;;7.10;;
1106;SDS011;540;49.448;8.612;2022-11-12T08:45:44;14.65;;;6.85;;
1106;SDS011;540;49.448;8.612;2022-11-12T08:48:14;11.93;;;6.47;;
1106;SDS011;540;49.448;8.612;2022-11-12T08:50:43;31.17;;;14.23;;
1106;SDS011;540;49.448;8.612;2022-11-12T08:53:11;28.90;;;12.18;;
1106;SDS011;540;49.448;8.612;2022-11-12T08:55:39;34.97;;;13.70;;
1106;SDS011;540;49.448;8.612;2022-11-12T08:58:07;45.28;;;12.63;;
1106;SDS011;540;49.448;8.612;2022-11-12T09:00:36;19.65;;;8.07;;
1106;SDS011;540;49.448;8.612;2022-11-12T09:03:06;12.35;;;7.10;;
1106;SDS011;540;49.448;8.612;2022-11-12T09:05:40;12.15;;;6.90;;
1106;SDS011;540;49.448;8.612;2022-11-12T09:08:09;12.20;;;5.75;;
1106;SDS011;540;49.448;8.612;2022-11-12T09:10:38;13.63;;;5.45;;
1106;SDS011;540;49.448;8.612;2022-11-12T09:13:07;9.13;;;5.82;;
1106;SDS011;540;49.448;8.612;2022-11-12T09:15:35;9.52;;;5.38;;
1106;SDS011;540;49.448;8.612;2022-11-12T09:18:05;9.00;;;5.63;;
1106;SDS011;540;49.448;8.612;2022-11-12T09:20:34;9.15;;;5.55;;
1106;SDS011;540;49.448;8.612;2022-11-12T09:23:04;13.77;;;5.70;;
1106;SDS011;540;49.448;8.612;2022-11-12T09:25:33;9.73;;;5.65;;
1106;SDS011;540;49.448;8.612;2022-11-12T09:28:04;7.03;;;4.85;;
1106;SDS011;540;49.448;8.612;2022-11-12T09:30:33;9.15;;;5.00;;
1106;SDS011;540;49.448;8.612;2022-11-12T09:33:02;7.20;;;4.70;;
1106;SDS011;540;49.448;8.612;2022-11-12T09:35:30;7.95;;;4.68;;
1106;SDS011;540;49.448;8.612;2022-11-12T09:37:57;9.65;;;4.97;;
1106;SDS011;540;49.448;8.612;2022-11-12T09:40:30;8.27;;;4.43;;
1106;SDS011;540;49.448;8.612;2022-11-12T09:43:09;8.15;;;4.50;;
1106;SDS011;540;49.448;8.612;2022-11-12T09:45:44;10.98;;;6.60;;
1106;SDS011;540;49.448;8.612;2022-11-12T09:48:33;7.50;;;4.57;;
1106;SDS011;540;49.448;8.612;2022-11-12T09:51:08;8.20;;;4.63;;
1106;SDS011;540;49.448;8.612;2022-11-12T09:53:42;7.50;;;4.50;;
1106;SDS011;540;49.448;8.612;2022-11-12T09:56:16;8.95;;;4.70;;
1106;SDS011;540;49.448;8.612;2022-11-12T09:58:46;16.85;;;6.93;;
1106;SDS011;540;49.448;8.612;2022-11-12T10:01:15;15.07;;;6.28;;
1106;SDS011;540;49.448;8.612;2022-11-12T10:03:47;15.27;;;5.80;;
1106;SDS011;540;49.448;8.612;2022-11-12T10:06:21;9.95;;;5.55;;
1106;SDS011;540;49.448;8.612;2022-11-12T10:08:51;7.15;;;4.45;;
1106;SDS011;540;49.448;8.612;2022-11-12T10:11:26;9.90;;;5.00;;
1106;SDS011;540;49.448;8.612;2022-11-12T10:14:30;7.55;;;4.35;;
1106;SDS011;540;49.448;8.612;2022-11-12T10:17:13;9.55;;;5.10;;
1106;SDS011;540;49.448;8.612;2022-11-12T10:19:52;11.40;;;6.10;;
1106;SDS011;540;49.448;8.612;2022-11-12T10:22:32;10.77;;;5.97;;
1106;SDS011;540;49.448;8.612;2022-11-12T10:25:10;17.23;;;7.68;;
1106;SDS011;540;49.448;8.612;2022-11-12T10:27:42;18.58;;;7.63;;
1106;SDS011;540;49.448;8.612;2022-11-12T10:30:12;14.50;;;7.30;;
1106;SDS011;540;49.448;8.612;2022-11-12T10:32:43;39.85;;;21.42;;
1106;SDS011;540;49.448;8.612;2022-11-12T10:35:13;15.80;;;9.82;;
1106;SDS011;540;49.448;8.612;2022-11-12T10:37:45;11.32;;;6.32;;
1106;SDS011;540;49.448;8.612;2022-11-12T10:40:27;10.20;;;5.38;;
1106;SDS011;540;49.448;8.612;2022-11-12T10:43:02;7.90;;;4.85;;
1106;SDS011;540;49.448;8.612;2022-11-12T10:45:31;9.63;;;5.00;;
1106;SDS011;540;49.448;8.612;2022-11-12T10:47:59;6.70;;;4.10;;
1106;SDS011;540;49.448;8.612;2022-11-12T10:50:28;9.18;;;5.25;;
1106;SDS011;540;49.448;8.612;2022-11-12T10:52:59;9.23;;;5.63;;
1106;SDS011;540;49.448;8.612;2022-11-12T10:55:29;12.38;;;7.55;;
1106;SDS011;540;49.448;8.612;2022-11-12T10:58:09;7.07;;;5.10;;
1106;SDS011;540;49.448;8.612;2022-11-12T11:03:20;9.80;;;5.30;;
1106;SDS011;540;49.448;8.612;2022-11-12T11:05:51;8.32;;;5.40;;
1106;SDS011;540;49.448;8.612;2022-11-12T11:08:31;16.13;;;7.95;;
1106;SDS011;540;49.448;8.612;2022-11-12T11:11:17;11.10;;;6.20;;
1106;SDS011;540;49.448;8.612;2022-11-12T11:13:49;11.93;;;6.00;;
1106;SDS011;540;49.448;8.612;2022-11-12T11:16:22;11.15;;;5.30;;
1106;SDS011;540;49.448;8.612;2022-11-12T11:18:52;8.35;;;5.22;;
1106;SDS011;540;49.448;8.612;2022-11-12T11:21:28;10.40;;;5.53;;
1106;SDS011;540;49.448;8.612;2022-11-12T11:24:13;10.18;;;6.18;;
1106;SDS011;540;49.448;8.612;2022-11-12T11:26:53;12.43;;;5.72;;
1106;SDS011;540;49.448;8.612;2022-11-12T11:32:25;10.23;;;5.20;;
1106;SDS011;540;49.448;8.612;2022-11-12T11:35:10;14.23;;;7.70;;
1106;SDS011;540;49.448;8.612;2022-11-12T11:37:47;10.10;;;5.80;;
1106;SDS011;540;49.448;8.612;2022-11-12T11:40:25;8.88;;;5.82;;
1106;SDS011;540;49.448;8.612;2022-11-12T11:43:03;9.82;;;5.78;;
1106;SDS011;540;49.448;8.612;2022-11-12T11:45:58;9.73;;;5.85;;
1106;SDS011;540;49.448;8.612;2022-11-12T11:48:37;12.23;;;7.50;;
1106;SDS011;540;49.448;8.612;2022-11-12T11:51:20;12.05;;;7.68;;
1106;SDS011;540;49.448;8.612;2022-11-12T11:54:01;15.68;;;7.70;;
1106;SDS011;540;49.448;8.612;2022-11-12T11:56:40;24.58;;;11.32;;
1106;SDS011;540;49.448;8.612;2022-11-12T11:59:15;20.75;;;10.50;;
1106;SDS011;540;49.448;8.612;2022-11-12T12:01:56;19.65;;;9.95;;
1106;SDS011;540;49.448;8.612;2022-11-12T12:04:48;18.85;;;9.48;;
1106;SDS011;540;49.448;8.612;2022-11-12T12:07:20;16.83;;;8.98;;
1106;SDS011;540;49.448;8.612;2022-11-12T12:09:56;15.00;;;7.70;;
1106;SDS011;540;49.448;8.612;2022-11-12T12:12:38;18.90;;;9.73;;
1106;SDS011;540;49.448;8.612;2022-11-12T12:15:30;24.63;;;12.13;;
1106;SDS011;540;49.448;8.612;2022-11-12T12:18:09;18.83;;;10.05;;
1106;SDS011;540;49.448;8.612;2022-11-12T12:20:44;19.98;;;10.15;;
1106;SDS011;540;49.448;8.612;2022-11-12T12:23:21;21.40;;;10.20;;
1106;SDS011;540;49.448;8.612;2022-11-12T12:25:53;19.25;;;10.18;;
1106;SDS011;540;49.448;8.612;2022-11-12T12:28:27;15.68;;;8.40;;
1106;SDS011;540;49.448;8.612;2022-11-12T12:31:04;12.25;;;7.80;;
1106;SDS011;540;49.448;8.612;2022-11-12T12:33:42;12.57;;;7.47;;
1106;SDS011;540;49.448;8.612;2022-11-12T12:36:16;13.57;;;7.30;;
1106;SDS011;540;49.448;8.612;2022-11-12T12:38:50;10.85;;;6.40;;
1106;SDS011;540;49.448;8.612;2022-11-12T12:41:20;11.60;;;7.20;;
1106;SDS011;540;49.448;8.612;2022-11-12T12:43:53;17.13;;;8.50;;
1106;SDS011;540;49.448;8.612;2022-11-12T12:46:25;28.30;;;11.55;;
1106;SDS011;540;49.448;8.612;2022-11-12T12:48:56;29.75;;;12.38;;
1106;SDS011;540;49.448;8.612;2022-11-12T12:51:26;16.23;;;8.18;;
1106;SDS011;540;49.448;8.612;2022-11-12T12:53:56;11.45;;;6.88;;
1106;SDS011;540;49.448;8.612;2022-11-12T12:59:20;10.52;;;6.90;;
1106;SDS011;540;49.448;8.612;2022-11-12T13:01:55;12.48;;;7.22;;
1106;SDS011;540;49.448;8.612;2022-11-12T13:07:21;10.85;;;7.00;;
1106;SDS011;540;49.448;8.612;2022-11-12T13:15:58;11.73;;;7.00;;
1106;SDS011;540;49.448;8.612;2022-11-12T13:21:28;11.32;;;6.90;;
1106;SDS011;540;49.448;8.612;2022-11-12T13:23:57;16.38;;;7.55;;
1106;SDS011;540;49.448;8.612;2022-11-12T13:26:53;15.73;;;8.43;;
1106;SDS011;540;49.448;8.612;2022-11-12T13:32:31;14.65;;;8.13;;
1106;SDS011;540;49.448;8.612;2022-11-12T13:35:20;12.35;;;7.10;;
1106;SDS011;540;49.448;8.612;2022-11-12T13:37:55;13.57;;;8.00;;
1106;SDS011;540;49.448;8.612;2022-11-12T13:40:35;12.93;;;7.85;;
1106;SDS011;540;49.448;8.612;2022-11-12T13:43:08;15.18;;;9.00;;
1106;SDS011;540;49.448;8.612;2022-11-12T13:45:40;14.75;;;8.30;;
1106;SDS011;540;49.448;8.612;2022-11-12T13:48:12;19.25;;;8.57;;
1106;SDS011;540;49.448;8.612;2022-11-12T13:50:47;14.40;;;8.75;;
1106;SDS011;540;49.448;8.612;2022-11-12T13:53:21;18.67;;;9.05;;
1106;SDS011;540;49.448;8.612;2022-11-12T13:55:51;15.43;;;9.02;;
1106;SDS011;540;49.448;8.612;2022-11-12T13:58:24;18.08;;;9.00;;
1106;SDS011;540;49.448;8.612;2022-11-12T14:00:55;17.38;;;10.00;;
1106;SDS011;540;49.448;8.612;2022-11-12T14:03:24;16.63;;;8.95;;
1106;SDS011;540;49.448;8.612;2022-11-12T14:05:55;15.40;;;8.98;;
1106;SDS011;540;49.448;8.612;2022-11-12T14:08:34;15.13;;;8.13;;
1106;SDS011;540;49.448;8.612;2022-11-12T14:14:18;13.00;;;7.78;;
1106;SDS011;540;49.448;8.612;2022-11-12T14:16:57;22.35;;;10.68;;
1106;SDS011;540;49.448;8.612;2022-11-12T14:22:46;16.23;;;9.57;;
1106;SDS011;540;49.448;8.612;2022-11-12T14:25:17;14.70;;;9.52;;
1106;SDS011;540;49.448;8.612;2022-11-12T14:27:47;16.88;;;8.82;;
1106;SDS011;540;49.448;8.612;2022-11-12T14:30:19;18.08;;;10.57;;
1106;SDS011;540;49.448;8.612;2022-11-12T14:32:50;19.65;;;11.05;;
1106;SDS011;540;49.448;8.612;2022-11-12T14:35:28;19.77;;;11.02;;
1106;SDS011;540;49.448;8.612;2022-11-12T14:37:59;18.77;;;10.85;;
1106;SDS011;540;49.448;8.612;2022-11-12T14:40:34;24.92;;;11.40;;
1106;SDS011;540;49.448;8.612;2022-11-12T14:43:03;18.17;;;10.23;;
1106;SDS011;540;49.448;8.612;2022-11-12T14:45:32;21.42;;;10.48;;
1106;SDS011;540;49.448;8.612;2022-11-12T14:48:00;18.65;;;10.25;;
1106;SDS011;540;49.448;8.612;2022-11-12T14:50:28;22.65;;;13.02;;
1106;SDS011;540;49.448;8.612;2022-11-12T14:53:06;20.92;;;10.75;;
1106;SDS011;540;49.448;8.612;2022-11-12T14:55:46;19.05;;;10.25;;
1106;SDS011;540;49.448;8.612;2022-11-12T14:58:16;16.13;;;10.32;;
1106;SDS011;540;49.448;8.612;2022-11-12T15:00:46;16.83;;;10.00;;
1106;SDS011;540;49.448;8.612;2022-11-12T15:03:16;17.85;;;9.25;;
1106;SDS011;540;49.448;8.612;2022-11-12T15:05:57;30.83;;;12.52;;
1106;SDS011;540;49.448;8.612;2022-11-12T15:08:33;21.25;;;11.35;;
1106;SDS011;540;49.448;8.612;2022-11-12T15:11:17;19.13;;;10.70;;
1106;SDS011;540;49.448;8.612;2022-11-12T15:13:47;16.75;;;10.18;;
1106;SDS011;540;49.448;8.612;2022-11-12T15:16:18;18.75;;;10.63;;
1106;SDS011;540;49.448;8.612;2022-11-12T15:19:01;19.48;;;10.60;;
1106;SDS011;540;49.448;8.612;2022-11-12T15:21:34;18.00;;;10.45;;
1106;SDS011;540;49.448;8.612;2022-11-12T15:24:04;20.83;;;10.40;;
1106;SDS011;540;49.448;8.612;2022-11-12T15:26:36;22.08;;;10.50;;
1106;SDS011;540;49.448;8.612;2022-11-12T15:29:12;18.17;;;10.35;;
1106;SDS011;540;49.448;8.612;2022-11-12T15:31:45;29.77;;;10.07;;
1106;SDS011;540;49.448;8.612;2022-11-12T15:34:28;23.50;;;11.20;;
1106;SDS011;540;49.448;8.612;2022-11-12T15:36:59;20.38;;;11.18;;
1106;SDS011;540;49.448;8.612;2022-11-12T15:39:31;21.75;;;11.38;;
1106;SDS011;540;49.448;8.612;2022-11-12T15:42:12;20.65;;;10.68;;
1106;SDS011;540;49.448;8.612;2022-11-12T15:44:42;25.15;;;10.93;;
1106;SDS011;540;49.448;8.612;2022-11-12T15:47:12;21.35;;;10.95;;
1106;SDS011;540;49.448;8.612;2022-11-12T15:49:48;21.20;;;10.52;;
1106;SDS011;540;49.448;8.612;2022-11-12T15:52:18;19.17;;;10.35;;
1106;SDS011;540;49.448;8.612;2022-11-12T15:54:46;23.38;;;11.27;;
1106;SDS011;540;49.448;8.612;2022-11-12T15:57:18;20.75;;;12.05;;
1106;SDS011;540;49.448;8.612;2022-11-12T15:59:50;29.95;;;12.23;;
1106;SDS011;540;49.448;8.612;2022-11-12T16:02:21;21.40;;;11.18;;
1106;SDS011;540;49.448;8.612;2022-11-12T16:04:50;20.75;;;11.52;;
1106;SDS011;540;49.448;8.612;2022-11-12T16:07:18;25.73;;;12.32;;
1106;SDS011;540;49.448;8.612;2022-11-12T16:09:46;24.30;;;11.95;;